Time;durP1;ratioP1;P1;durP2;ratioP2;P2;SDS_P1;SDS_P2;PMS_P1;PMS_P2;Temp;Humidity;BMP_temperature;BMP_pressure;BME280_temperature;BME280_humidity;BME280_pressure;Samples;Min_cycle;Max_cycle;Signal;HPM_P1;HPM_P2
2024/01/17 00:02:15;;;;;;;29.65;11.55;;;;;;;-2.40;71.78;97540.75;5059194;28;20032;-76
2024/01/17 00:04:45;;;;;;;24.48;11.10;;;;;;;-2.36;71.89;97546.41;5065939;28;20047;-76
2024/01/17 00:07:10;;;;;;;34.05;11.85;;;;;;;-2.36;72.08;97543.78;5063209;28;20568;-76
2024/01/17 00:09:35;;;;;;;19.90;11.57;;;;;;;-2.37;72.08;97539.53;5057410;28;20115;-76
2024/01/17 00:12:04;;;;;;;22.38;13.30;;;;;;;-2.37;72.82;97547.38;5065033;28;20427;-76
2024/01/17 00:14:30;;;;;;;23.65;12.60;;;;;;;-2.37;72.20;97542.16;5063074;28;20085;-76
2024/01/17 00:16:55;;;;;;;21.50;10.40;;;;;;;-2.50;72.49;97522.06;5062575;28;20032;-76
2024/01/17 00:19:21;;;;;;;19.30;10.98;;;;;;;-2.43;72.57;97545.56;5056433;28;20548;-76
2024/01/17 00:21:47;;;;;;;22.02;9.98;;;;;;;-2.52;72.03;97544.94;5059656;28;20722;-76
2024/01/17 00:24:13;;;;;;;21.38;9.88;;;;;;;-2.65;72.48;97529.25;5057099;28;20033;-76
2024/01/17 00:26:38;;;;;;;19.08;9.48;;;;;;;-2.76;72.58;97535.06;5063936;28;20600;-75
2024/01/17 00:29:03;;;;;;;20.00;10.40;;;;;;;-2.74;73.10;97543.50;5056859;28;20041;-76
2024/01/17 00:31:29;;;;;;;16.88;9.40;;;;;;;-2.71;73.48;97553.53;5057634;28;20032;-75
2024/01/17 00:33:54;;;;;;;25.48;11.00;;;;;;;-2.76;72.97;97549.91;5055198;28;20581;-75
2024/01/17 00:36:20;;;;;;;21.02;10.20;;;;;;;-2.77;72.41;97543.06;5056411;28;20043;-76
2024/01/17 00:38:45;;;;;;;28.80;10.68;;;;;;;-2.71;71.79;97548.28;5062231;28;20108;-76
2024/01/17 00:41:11;;;;;;;26.77;12.45;;;;;;;-2.79;71.37;97532.00;5059601;28;20052;-75
2024/01/17 00:43:36;;;;;;;22.05;10.15;;;;;;;-2.72;72.02;97535.44;5062429;28;20040;-76
2024/01/17 00:46:01;;;;;;;19.40;10.73;;;;;;;-2.74;71.88;97534.84;5061764;28;20040;-76
2024/01/17 00:48:27;;;;;;;21.55;10.63;;;;;;;-2.73;71.04;97528.63;5064278;28;20021;-75
2024/01/17 00:50:52;;;;;;;15.07;9.18;;;;;;;-2.72;71.46;97514.56;5052274;28;20041;-76
2024/01/17 00:53:17;;;;;;;28.17;10.80;;;;;;;-2.83;70.75;97520.34;5056076;28;20120;-75
2024/01/17 00:55:43;;;;;;;25.08;9.57;;;;;;;-2.88;70.70;97513.13;5057160;28;20071;-75
2024/01/17 00:58:08;;;;;;;17.67;10.80;;;;;;;-2.85;71.09;97510.13;5058344;28;20120;-76
2024/01/17 01:00:33;;;;;;;24.33;11.38;;;;;;;-2.88;70.50;97509.72;5062074;28;20025;-76
2024/01/17 01:02:59;;;;;;;21.50;10.90;;;;;;;-2.83;70.34;97507.31;5063219;28;20041;-75
2024/01/17 01:05:24;;;;;;;23.80;11.27;;;;;;;-2.83;71.02;97504.69;5064377;28;20036;-76
2024/01/17 01:07:51;;;;;;;19.98;9.85;;;;;;;-2.86;70.73;97489.44;5065068;28;20028;-75
2024/01/17 01:10:16;;;;;;;23.55;10.88;;;;;;;-2.85;70.60;97483.19;5068187;28;20366;-76
2024/01/17 01:12:41;;;;;;;24.30;10.48;;;;;;;-2.97;70.32;97474.34;5069286;28;20054;-75
2024/01/17 01:15:08;;;;;;;24.00;9.88;;;;;;;-2.96;71.57;97473.34;5067096;28;20025;-75
2024/01/17 01:17:33;;;;;;;21.95;9.63;;;;;;;-2.93;71.12;97472.97;5058757;28;20027;-75
2024/01/17 01:19:58;;;;;;;20.30;10.32;;;;;;;-2.94;71.41;97468.72;5061512;28;20028;-76
2024/01/17 01:22:24;;;;;;;19.45;9.40;;;;;;;-2.97;71.26;97464.69;5053727;28;20689;-75
2024/01/17 01:24:49;;;;;;;22.52;9.30;;;;;;;-2.95;70.44;97464.53;5062818;28;20475;-76
2024/01/17 01:27:14;;;;;;;18.65;9.52;;;;;;;-3.03;70.84;97461.09;5062039;28;20109;-75
2024/01/17 01:29:40;;;;;;;22.15;10.88;;;;;;;-3.06;71.29;97463.28;5062071;28;20044;-76
2024/01/17 01:32:06;;;;;;;24.30;11.57;;;;;;;-3.05;70.54;97455.25;5066523;28;20048;-75
2024/01/17 01:34:31;;;;;;;28.92;10.77;;;;;;;-3.12;71.27;97449.22;5058514;28;20043;-75
2024/01/17 01:36:56;;;;;;;14.35;9.88;;;;;;;-3.11;71.10;97447.41;5063258;28;20033;-76
2024/01/17 01:39:22;;;;;;;25.70;10.50;;;;;;;-3.08;71.42;97452.25;5056574;28;20048;-76
2024/01/17 01:41:47;;;;;;;17.92;9.93;;;;;;;-3.13;71.99;97442.41;5064715;28;20025;-76
2024/01/17 01:44:12;;;;;;;18.17;9.35;;;;;;;-3.10;71.50;97449.00;5061801;28;20024;-75
2024/01/17 01:46:38;;;;;;;22.30;11.20;;;;;;;-3.17;71.20;97430.72;5056836;28;21794;-76
2024/01/17 01:49:04;;;;;;;18.42;10.73;;;;;;;-3.19;71.21;97434.56;5059009;28;20028;-76
2024/01/17 01:51:30;;;;;;;25.88;10.45;;;;;;;-3.26;71.70;97439.75;5056868;28;20523;-75
2024/01/17 01:53:58;;;;;;;21.63;9.50;;;;;;;-3.27;71.93;97426.88;5062866;28;20043;-74
2024/01/17 01:56:28;;;;;;;19.30;10.02;;;;;;;-3.26;71.22;97424.09;5070416;28;20123;-75
2024/01/17 01:58:55;;;;;;;19.42;9.45;;;;;;;-3.29;72.15;97418.44;5060441;28;20170;-76
2024/01/17 02:01:20;;;;;;;22.40;11.35;;;;;;;-3.28;71.33;97413.06;5063272;28;20032;-75
2024/01/17 02:03:47;;;;;;;16.08;9.80;;;;;;;-3.28;71.51;97425.28;5068741;28;20043;-75
2024/01/17 02:06:13;;;;;;;19.98;10.23;;;;;;;-3.30;71.26;97412.44;5063287;28;20029;-75
2024/01/17 02:08:39;;;;;;;21.38;10.05;;;;;;;-3.33;70.94;97407.63;5060028;28;20051;-75
2024/01/17 02:11:05;;;;;;;16.30;9.93;;;;;;;-3.42;71.26;97400.16;5057585;28;20024;-74
2024/01/17 02:13:30;;;;;;;25.30;11.52;;;;;;;-3.43;71.53;97380.31;5054528;28;20032;-75
2024/01/17 02:15:56;;;;;;;21.15;10.57;;;;;;;-3.38;71.42;97383.13;5059452;28;20032;-76
2024/01/17 02:18:22;;;;;;;18.05;9.00;;;;;;;-3.37;72.00;97377.72;5066248;28;20048;-75
2024/01/17 02:20:47;;;;;;;22.58;9.73;;;;;;;-3.41;71.66;97371.28;5055818;28;20100;-76
2024/01/17 02:23:39;;;;;;;20.23;11.07;;;;;;;-3.38;71.44;97363.06;5064750;28;20037;-75
2024/01/17 02:26:04;;;;;;;22.02;11.15;;;;;;;-3.39;70.93;97356.25;5056180;28;20051;-75
2024/01/17 02:28:31;;;;;;;21.63;11.05;;;;;;;-3.39;71.53;97350.22;5038501;28;20028;-75
2024/01/17 02:30:57;;;;;;;19.95;10.43;;;;;;;-3.37;70.33;97343.81;5052933;28;20187;-76
2024/01/17 02:33:22;;;;;;;21.15;11.65;;;;;;;-3.41;70.28;97333.97;5056157;28;20043;-75
2024/01/17 02:35:47;;;;;;;29.08;10.70;;;;;;;-3.42;70.36;97332.34;5054231;28;20033;-76
2024/01/17 02:38:13;;;;;;;22.02;10.13;;;;;;;-3.51;69.76;97334.34;5057266;28;20033;-75
2024/01/17 02:40:39;;;;;;;28.90;12.02;;;;;;;-3.53;69.85;97323.31;5056970;28;20040;-76
2024/01/17 02:43:05;;;;;;;19.63;10.40;;;;;;;-3.51;70.28;97326.53;5057691;28;20120;-75
2024/01/17 02:45:31;;;;;;;28.30;11.32;;;;;;;-3.51;70.40;97316.09;5056985;28;20113;-75
2024/01/17 02:47:56;;;;;;;20.60;11.50;;;;;;;-3.54;69.90;97320.91;5052957;28;20128;-75
2024/01/17 02:50:22;;;;;;;27.85;11.13;;;;;;;-3.51;69.82;97328.31;5061034;28;20166;-76
2024/01/17 02:52:47;;;;;;;26.27;11.23;;;;;;;-3.47;70.42;97321.75;5058209;28;20482;-76
2024/01/17 02:55:17;;;;;;;22.20;10.70;;;;;;;-3.50;70.02;97319.50;5058407;28;20125;-75
2024/01/17 02:57:42;;;;;;;26.40;11.43;;;;;;;-3.54;70.99;97316.50;5054950;28;20496;-75
2024/01/17 03:00:09;;;;;;;24.52;11.45;;;;;;;-3.60;70.89;97317.28;5060420;28;20029;-75
2024/01/17 03:02:35;;;;;;;30.85;11.73;;;;;;;-3.54;70.08;97319.13;5063285;28;20032;-76
2024/01/17 03:05:01;;;;;;;21.52;11.00;;;;;;;-3.62;70.51;97308.84;5058114;28;20557;-75
2024/01/17 03:07:26;;;;;;;25.17;11.18;;;;;;;-3.65;71.10;97306.66;5052621;28;20120;-75
2024/01/17 03:09:52;;;;;;;23.13;11.00;;;;;;;-3.65;71.06;97309.25;5061743;28;20561;-75
2024/01/17 03:12:20;;;;;;;21.25;9.82;;;;;;;-3.65;70.99;97311.88;5057838;28;20029;-75
2024/01/17 03:14:45;;;;;;;16.90;10.00;;;;;;;-3.64;71.16;97310.84;5066884;28;20166;-75
2024/01/17 03:17:12;;;;;;;33.85;11.38;;;;;;;-3.66;70.49;97307.63;5055834;28;20115;-75
2024/01/17 03:19:38;;;;;;;24.85;11.18;;;;;;;-3.68;70.92;97298.41;5051858;28;20091;-75
2024/01/17 03:22:03;;;;;;;32.45;12.15;;;;;;;-3.65;71.31;97293.63;5064950;28;20481;-76
2024/01/17 03:24:29;;;;;;;23.00;11.55;;;;;;;-3.69;71.20;97274.13;5058379;28;20044;-75
2024/01/17 03:26:54;;;;;;;24.35;12.50;;;;;;;-3.59;70.73;97276.38;5051517;28;20242;-75
2024/01/17 03:29:19;;;;;;;28.08;11.45;;;;;;;-3.60;71.24;97275.56;5046512;28;20071;-75
2024/01/17 03:31:45;;;;;;;24.92;11.25;;;;;;;-3.59;70.66;97271.16;5058743;28;20127;-75
2024/01/17 03:34:10;;;;;;;23.67;11.80;;;;;;;-3.65;71.94;97257.13;5058711;28;20108;-75
2024/01/17 03:36:35;;;;;;;20.40;10.32;;;;;;;-3.65;71.52;97264.13;5056938;28;20035;-75
2024/01/17 03:39:01;;;;;;;19.48;10.93;;;;;;;-3.66;72.59;97265.94;5064016;28;20042;-75
2024/01/17 03:41:27;;;;;;;21.88;11.18;;;;;;;-3.64;71.74;97255.28;5055639;28;20033;-75
2024/01/17 03:43:52;;;;;;;24.98;12.10;;;;;;;-3.67;72.83;97245.28;5059809;28;20405;-75
2024/01/17 03:46:18;;;;;;;22.55;12.27;;;;;;;-3.62;73.17;97243.66;5056645;28;20029;-75
2024/01/17 03:48:43;;;;;;;22.85;10.85;;;;;;;-3.65;73.17;97241.47;5058293;28;20036;-75
2024/01/17 03:51:08;;;;;;;26.75;12.18;;;;;;;-3.65;72.98;97241.47;5062363;28;20043;-75
2024/01/17 03:53:34;;;;;;;22.48;11.32;;;;;;;-3.62;73.44;97243.66;5059780;28;20358;-75
2024/01/17 03:55:59;;;;;;;22.50;12.32;;;;;;;-3.61;72.93;97232.25;5056919;28;20139;-76
2024/01/17 03:58:25;;;;;;;28.27;12.68;;;;;;;-3.55;72.60;97228.03;5057401;28;20854;-76
2024/01/17 04:00:50;;;;;;;23.67;11.90;;;;;;;-3.54;72.70;97224.44;5055128;28;20118;-75
2024/01/17 04:03:15;;;;;;;19.98;11.15;;;;;;;-3.59;73.29;97214.63;5056270;28;20024;-75
2024/01/17 04:05:41;;;;;;;29.13;13.32;;;;;;;-3.61;71.87;97216.63;5054608;28;20440;-75
2024/01/17 04:08:07;;;;;;;23.50;11.13;;;;;;;-3.60;71.86;97209.59;5055006;28;20430;-75
2024/01/17 04:10:32;;;;;;;22.00;10.45;;;;;;;-3.63;72.03;97189.13;5056534;28;20485;-75
2024/01/17 04:12:58;;;;;;;22.65;12.52;;;;;;;-3.60;72.20;97180.94;5056805;28;20544;-75
2024/01/17 04:15:23;;;;;;;33.88;13.85;;;;;;;-3.62;72.94;97175.91;5058436;28;20287;-75
2024/01/17 04:17:49;;;;;;;31.98;13.57;;;;;;;-3.59;73.26;97172.09;5063226;28;20075;-75
2024/01/17 04:20:14;;;;;;;27.42;12.90;;;;;;;-3.56;72.46;97163.88;5056795;28;20036;-75
2024/01/17 04:22:40;;;;;;;25.23;11.93;;;;;;;-3.50;73.23;97169.09;5056282;28;20123;-75
2024/01/17 04:25:05;;;;;;;27.10;12.55;;;;;;;-3.53;73.74;97177.31;5058650;28;20039;-75
2024/01/17 04:27:31;;;;;;;22.92;12.43;;;;;;;-3.61;73.34;97169.69;5057174;28;20029;-75
2024/01/17 04:29:58;;;;;;;23.48;13.80;;;;;;;-3.54;74.04;97167.09;5058318;28;20036;-75
2024/01/17 04:32:23;;;;;;;27.73;13.27;;;;;;;-3.48;73.58;97164.47;5052051;28;20030;-75
2024/01/17 04:34:49;;;;;;;25.15;13.15;;;;;;;-3.49;73.85;97154.22;5052770;28;20020;-75
2024/01/17 04:37:15;;;;;;;23.27;12.77;;;;;;;-3.54;73.30;97160.06;5049032;28;20071;-75
2024/01/17 04:39:41;;;;;;;32.42;12.20;;;;;;;-3.47;73.53;97155.63;5054107;28;20028;-75
2024/01/17 04:42:06;;;;;;;27.23;12.65;;;;;;;-3.56;72.61;97141.19;5057289;28;20035;-75
2024/01/17 04:44:32;;;;;;;22.02;12.05;;;;;;;-3.41;72.78;97146.22;5056782;28;20037;-75
2024/01/17 04:46:58;;;;;;;32.20;12.25;;;;;;;-3.44;73.45;97138.78;5055796;28;20043;-74
2024/01/17 04:49:27;;;;;;;27.77;12.82;;;;;;;-3.41;73.45;97139.22;5057656;28;20033;-74
2024/01/17 04:51:56;;;;;;;37.08;13.70;;;;;;;-3.39;72.64;97131.97;5053726;28;20029;-75
2024/01/17 04:54:23;;;;;;;29.40;14.55;;;;;;;-3.39;73.29;97131.19;5056066;28;20016;-75
2024/01/17 04:56:48;;;;;;;25.80;14.07;;;;;;;-3.42;72.88;97116.72;5053822;28;20414;-75
2024/01/17 04:59:13;;;;;;;27.48;13.27;;;;;;;-3.43;72.37;97119.56;5056718;28;20059;-75
2024/01/17 05:01:39;;;;;;;22.10;11.95;;;;;;;-3.41;72.72;97115.75;5021429;28;20436;-75
2024/01/17 05:04:04;;;;;;;25.55;12.95;;;;;;;-3.49;72.40;97105.50;5054006;28;20037;-75
2024/01/17 05:06:30;;;;;;;32.60;13.18;;;;;;;-3.46;73.18;97099.91;5057648;28;20033;-75
2024/01/17 05:08:58;;;;;;;23.13;11.90;;;;;;;-3.43;72.39;97094.25;5054195;28;20051;-75
2024/01/17 05:11:24;;;;;;;21.75;10.30;;;;;;;-3.43;72.96;97089.03;5055261;28;20025;-75
2024/01/17 05:13:49;;;;;;;19.35;11.30;;;;;;;-3.46;72.99;97075.63;5054866;28;20559;-75
2024/01/17 05:16:15;;;;;;;22.55;12.20;;;;;;;-3.52;72.49;97079.03;5055619;28;20033;-75
2024/01/17 05:18:41;;;;;;;26.90;11.65;;;;;;;-3.56;72.30;97070.81;5061153;28;20036;-75
2024/01/17 05:21:07;;;;;;;24.75;12.07;;;;;;;-3.47;72.35;97061.00;5054513;28;20565;-75
2024/01/17 05:23:32;;;;;;;30.80;12.73;;;;;;;-3.44;72.14;97043.13;5059398;28;20039;-75
2024/01/17 05:25:57;;;;;;;24.40;13.73;;;;;;;-3.45;71.88;97049.34;5056639;28;20029;-75
2024/01/17 05:28:23;;;;;;;21.17;11.95;;;;;;;-3.51;72.43;97039.72;5057099;28;20047;-76
2024/01/17 05:30:48;;;;;;;24.90;12.95;;;;;;;-3.45;72.88;97033.69;5053452;28;20028;-75
2024/01/17 05:33:13;;;;;;;22.73;13.68;;;;;;;-3.46;71.69;97020.88;5057395;28;20050;-75
2024/01/17 05:35:39;;;;;;;28.58;12.77;;;;;;;-3.41;71.75;97013.25;5052946;28;20028;-75
2024/01/17 05:38:04;;;;;;;25.05;12.20;;;;;;;-3.51;72.65;97000.63;5060302;28;20054;-75
2024/01/17 05:40:30;;;;;;;28.58;13.93;;;;;;;-3.37;72.10;97004.78;5052762;28;20033;-75
2024/01/17 05:42:55;;;;;;;25.52;13.10;;;;;;;-3.35;72.18;97004.59;5059291;28;20540;-75
2024/01/17 05:45:21;;;;;;;21.23;11.43;;;;;;;-3.33;71.89;96997.34;5065493;28;20488;-75
2024/01/17 05:47:47;;;;;;;25.52;12.15;;;;;;;-3.44;71.21;96992.78;5061042;28;20277;-75
2024/01/17 05:50:12;;;;;;;27.83;14.32;;;;;;;-3.38;72.24;97000.56;5060872;28;20103;-75
2024/01/17 05:52:42;;;;;;;26.88;12.65;;;;;;;-3.43;71.73;96995.16;5064748;28;20029;-75
2024/01/17 05:55:09;;;;;;;25.02;12.20;;;;;;;-3.46;71.98;97002.63;5057637;28;20394;-75
2024/01/17 05:57:35;;;;;;;25.27;12.75;;;;;;;-3.52;72.13;96995.63;5059195;28;20028;-75
2024/01/17 06:00:03;;;;;;;27.23;11.52;;;;;;;-3.53;71.71;96988.78;5058169;28;20585;-75
2024/01/17 06:02:28;;;;;;;21.98;11.32;;;;;;;-3.51;72.66;96989.38;5051252;28;20036;-75
2024/01/17 06:04:54;;;;;;;24.55;11.68;;;;;;;-3.58;72.76;96981.56;5061271;28;20039;-75
2024/01/17 06:07:20;;;;;;;26.45;10.88;;;;;;;-3.56;72.14;96976.97;5046680;28;20046;-75
2024/01/17 06:09:45;;;;;;;21.40;10.38;;;;;;;-3.63;73.21;96984.03;5067601;28;20431;-75
2024/01/17 06:12:11;;;;;;;25.80;12.18;;;;;;;-3.62;72.76;96977.78;5072161;28;20094;-75
2024/01/17 06:14:37;;;;;;;19.52;12.82;;;;;;;-3.53;72.48;96967.94;5069655;28;20100;-75
2024/01/17 06:17:02;;;;;;;23.80;11.93;;;;;;;-3.54;71.85;96971.56;5064627;28;20036;-75
2024/01/17 06:19:28;;;;;;;17.58;11.00;;;;;;;-3.57;72.74;96977.16;5064533;28;20071;-75
2024/01/17 06:21:53;;;;;;;31.30;13.73;;;;;;;-3.62;72.08;96969.97;5058440;28;20060;-75
2024/01/17 06:24:18;;;;;;;24.42;12.27;;;;;;;-3.61;71.96;96963.75;5053045;28;20072;-75
2024/01/17 06:26:44;;;;;;;24.92;12.95;;;;;;;-3.63;73.21;96947.53;5059751;28;20113;-75
2024/01/17 06:29:10;;;;;;;20.88;12.13;;;;;;;-3.67;72.11;96948.94;5069479;28;20035;-76
2024/01/17 06:31:35;;;;;;;20.58;11.40;;;;;;;-3.62;71.80;96948.31;5091475;28;20028;-75
2024/01/17 06:34:01;;;;;;;25.52;12.25;;;;;;;-3.66;72.33;96931.47;5091058;28;20039;-75
2024/01/17 06:36:26;;;;;;;21.02;10.63;;;;;;;-3.61;71.81;96934.28;5092906;28;20024;-76
2024/01/17 06:38:52;;;;;;;22.52;11.85;;;;;;;-3.62;72.36;96937.88;5087169;28;20040;-75
2024/01/17 06:41:18;;;;;;;27.33;11.23;;;;;;;-3.63;72.57;96931.09;5052317;28;20111;-76
2024/01/17 06:43:45;;;;;;;28.02;10.57;;;;;;;-3.64;72.28;96916.44;5052558;28;20120;-76
2024/01/17 06:46:10;;;;;;;24.35;13.10;;;;;;;-3.64;72.81;96919.84;5052514;28;20516;-75
2024/01/17 06:48:36;;;;;;;22.08;11.65;;;;;;;-3.63;72.90;96916.25;5052593;28;20024;-75
2024/01/17 06:51:02;;;;;;;21.63;11.63;;;;;;;-3.61;72.91;96916.03;5068346;28;20481;-75
2024/01/17 06:53:28;;;;;;;23.98;12.90;;;;;;;-3.64;72.73;96914.63;5072226;28;20028;-76
2024/01/17 06:55:53;;;;;;;22.88;11.65;;;;;;;-3.76;72.73;96892.84;5072035;28;20035;-75
2024/01/17 06:58:19;;;;;;;28.65;13.75;;;;;;;-3.85;72.97;96896.69;5072284;28;20021;-76
2024/01/17 07:00:45;;;;;;;21.40;13.13;;;;;;;-3.69;73.31;96898.81;5084498;28;20124;-75
2024/01/17 07:03:11;;;;;;;24.15;12.27;;;;;;;-3.69;72.61;96888.38;5091596;28;20508;-76
2024/01/17 07:05:36;;;;;;;27.38;13.93;;;;;;;-3.68;73.53;96884.78;5092085;28;20036;-75
2024/01/17 07:08:02;;;;;;;20.20;11.20;;;;;;;-3.62;72.73;96883.94;5092146;28;20035;-75
2024/01/17 07:10:27;;;;;;;28.27;13.43;;;;;;;-3.69;73.31;96879.78;5090818;28;20058;-75
2024/01/17 07:12:53;;;;;;;20.98;10.70;;;;;;;-3.65;72.66;96879.16;5091708;28;20388;-75
2024/01/17 07:15:18;;;;;;;16.58;10.25;;;;;;;-3.71;73.05;96882.56;5092418;28;20027;-75
2024/01/17 07:17:44;;;;;;;23.08;11.57;;;;;;;-3.67;73.76;96885.59;5092399;28;20020;-75
2024/01/17 07:20:11;;;;;;;22.70;11.65;;;;;;;-3.74;73.37;96880.41;5091793;28;20496;-75
2024/01/17 07:22:44;;;;;;;27.08;11.30;;;;;;;-3.65;73.78;96880.97;5087946;28;20021;-75
2024/01/17 07:25:11;;;;;;;20.58;12.43;;;;;;;-3.67;72.94;96870.75;5078287;28;20028;-75
2024/01/17 07:27:40;;;;;;;30.30;12.75;;;;;;;-3.74;73.12;96877.81;5058269;28;20043;-75
2024/01/17 07:30:07;;;;;;;21.60;11.30;;;;;;;-3.71;73.95;96868.78;5052442;28;20107;-75
2024/01/17 07:32:33;;;;;;;19.98;11.85;;;;;;;-3.70;73.76;96852.91;5051649;28;20037;-75
2024/01/17 07:34:58;;;;;;;24.73;13.35;;;;;;;-3.66;73.83;96854.09;5051529;28;20028;-75
2024/01/17 07:37:24;;;;;;;27.52;12.15;;;;;;;-3.66;73.76;96853.28;5051226;28;20397;-75
2024/01/17 07:39:49;;;;;;;26.48;12.02;;;;;;;-3.64;73.43;96846.88;5051512;28;20401;-75
2024/01/17 07:42:18;;;;;;;24.17;14.15;;;;;;;-3.47;73.48;96840.16;5069752;28;20035;-75
2024/01/17 07:44:46;;;;;;;27.65;12.73;;;;;;;-3.58;73.28;96846.03;5060640;28;20052;-75
2024/01/17 07:47:11;;;;;;;19.58;12.32;;;;;;;-3.60;74.39;96840.22;5067158;28;20043;-75
2024/01/17 07:49:40;;;;;;;24.23;12.15;;;;;;;-3.64;73.62;96830.41;5069622;28;20033;-75
2024/01/17 07:52:06;;;;;;;23.85;13.07;;;;;;;-3.80;74.61;96827.28;5050331;28;20036;-76
2024/01/17 07:54:32;;;;;;;26.63;12.60;;;;;;;-3.57;74.74;96829.41;5051405;28;20028;-75
2024/01/17 07:56:57;;;;;;;24.95;12.52;;;;;;;-3.47;73.97;96823.72;5070383;28;20481;-75
2024/01/17 07:59:23;;;;;;;28.00;12.77;;;;;;;-3.45;74.54;96819.09;5069764;28;20037;-75
2024/01/17 08:01:49;;;;;;;27.52;13.15;;;;;;;-3.46;73.71;96818.31;5071477;28;20473;-75
2024/01/17 08:04:16;;;;;;;25.00;12.95;;;;;;;-3.51;74.40;96805.09;5071255;28;20025;-75
2024/01/17 08:06:42;;;;;;;24.27;13.77;;;;;;;-3.42;74.79;96814.25;5072134;28;20345;-75
2024/01/17 08:09:20;;;;;;;20.40;12.13;;;;;;;-3.50;74.62;96796.28;5064206;28;20086;-75
2024/01/17 08:11:55;;;;;;;27.70;13.43;;;;;;;-3.39;75.03;96795.59;5051283;28;20485;-75
2024/01/17 08:14:21;;;;;;;30.02;15.45;;;;;;;-3.44;74.34;96792.81;5050180;28;20037;-75
2024/01/17 08:16:48;;;;;;;31.48;15.57;;;;;;;-3.42;75.21;96776.94;5050044;28;20476;-75
2024/01/17 08:19:14;;;;;;;28.08;15.02;;;;;;;-3.37;75.04;96777.94;5056148;28;20028;-75
2024/01/17 08:21:41;;;;;;;27.42;14.73;;;;;;;-3.36;74.78;96771.69;5070514;28;20446;-75
2024/01/17 08:24:07;;;;;;;28.58;14.63;;;;;;;-3.27;74.61;96767.81;5070025;28;20101;-75
2024/01/17 08:26:32;;;;;;;29.40;16.13;;;;;;;-3.29;74.81;96763.81;5070425;28;20028;-75
2024/01/17 08:28:58;;;;;;;29.83;16.90;;;;;;;-3.33;75.43;96757.44;5073208;28;20032;-75
2024/01/17 08:31:24;;;;;;;31.20;17.88;;;;;;;-3.25;75.55;96755.34;5091641;28;20036;-75
2024/01/17 08:33:50;;;;;;;28.63;15.43;;;;;;;-3.19;75.09;96751.13;5091302;28;20416;-75
2024/01/17 08:36:16;;;;;;;32.72;16.35;;;;;;;-3.16;74.41;96746.25;5091005;28;20034;-75
2024/01/17 08:38:42;;;;;;;26.90;16.13;;;;;;;-3.16;75.07;96741.03;5090093;28;20032;-75
2024/01/17 08:41:08;;;;;;;30.50;15.10;;;;;;;-3.25;75.22;96726.66;5091811;28;20031;-75
2024/01/17 08:43:34;;;;;;;25.65;16.15;;;;;;;-3.10;74.39;96728.94;5090604;28;20380;-75
2024/01/17 08:46:00;;;;;;;25.50;15.68;;;;;;;-3.09;74.72;96731.34;5091339;28;20031;-75
2024/01/17 08:48:26;;;;;;;29.30;16.05;;;;;;;-3.06;75.18;96730.13;5089973;28;20507;-75
2024/01/17 08:50:52;;;;;;;32.97;17.08;;;;;;;-3.08;75.40;96722.50;5070398;28;20033;-75
2024/01/17 08:53:17;;;;;;;24.20;15.82;;;;;;;-3.02;74.41;96723.47;5069727;28;20024;-75
2024/01/17 08:55:42;;;;;;;24.58;14.38;;;;;;;-3.06;74.76;96709.25;5050505;28;20075;-75
2024/01/17 08:58:08;;;;;;;26.75;13.35;;;;;;;-2.99;75.19;96706.59;5060292;28;20039;-75
2024/01/17 09:00:33;;;;;;;28.23;15.15;;;;;;;-2.98;74.52;96702.94;5059661;28;20025;-75
2024/01/17 09:02:58;;;;;;;27.25;14.50;;;;;;;-3.03;74.37;96693.16;5061235;28;20028;-75
2024/01/17 09:05:24;;;;;;;27.55;14.10;;;;;;;-3.08;74.50;96675.53;5049968;28;20027;-75
2024/01/17 09:07:50;;;;;;;25.52;14.77;;;;;;;-3.04;75.36;96678.53;5052451;28;20024;-75
2024/01/17 09:10:17;;;;;;;27.30;14.45;;;;;;;-2.97;74.69;96681.06;5050322;28;20040;-75
2024/01/17 09:12:42;;;;;;;29.05;14.82;;;;;;;-2.93;74.94;96666.56;5049651;28;20060;-75
2024/01/17 09:15:08;;;;;;;26.83;14.05;;;;;;;-2.93;75.08;96666.56;5050946;28;20041;-75
2024/01/17 09:17:34;;;;;;;29.98;14.38;;;;;;;-2.94;75.13;96659.75;5064777;28;20028;-76
2024/01/17 09:20:00;;;;;;;27.33;14.77;;;;;;;-2.90;74.76;96655.69;5067952;28;20029;-75
2024/01/17 09:22:25;;;;;;;24.67;15.07;;;;;;;-2.77;75.09;96658.94;5073974;28;20487;-76
2024/01/17 09:24:50;;;;;;;30.42;15.85;;;;;;;-2.73;74.88;96656.72;5073854;28;20393;-75
2024/01/17 09:27:15;;;;;;;30.40;16.08;;;;;;;-2.71;74.38;96649.47;5073680;28;20086;-76
2024/01/17 09:29:41;;;;;;;28.30;16.05;;;;;;;-2.63;74.95;96634.31;5067137;28;20037;-76
2024/01/17 09:32:06;;;;;;;25.98;16.60;;;;;;;-2.63;74.00;96636.91;5053660;28;20037;-75
2024/01/17 09:34:32;;;;;;;28.63;15.68;;;;;;;-2.51;73.77;96636.97;5053873;28;20035;-75
2024/01/17 09:36:59;;;;;;;27.38;17.08;;;;;;;-2.51;74.22;96635.13;5053566;28;20029;-75
2024/01/17 09:39:25;;;;;;;32.97;18.75;;;;;;;-2.51;74.30;96623.91;5060775;28;20031;-75
2024/01/17 09:41:52;;;;;;;31.70;17.98;;;;;;;-2.60;74.42;96630.47;5093518;28;20032;-75
2024/01/17 09:44:17;;;;;;;33.92;18.63;;;;;;;-2.46;74.77;96626.66;5093633;28;20028;-76
2024/01/17 09:46:44;;;;;;;28.05;17.30;;;;;;;-2.43;74.43;96627.03;5093550;28;20167;-76
2024/01/17 09:49:10;;;;;;;35.90;18.35;;;;;;;-2.40;74.47;96613.50;5092727;28;20050;-76
2024/01/17 09:51:37;;;;;;;47.55;21.77;;;;;;;-2.39;73.74;96616.91;5066762;28;20025;-76
2024/01/17 09:54:04;;;;;;;45.15;20.90;;;;;;;-2.44;74.08;96603.72;5053495;28;20028;-76
2024/01/17 09:56:31;;;;;;;48.92;23.83;;;;;;;-2.38;74.04;96592.41;5052847;28;20025;-76
2024/01/17 09:59:02;;;;;;;51.40;23.17;;;;;;;-2.38;74.26;96602.84;5056507;28;20032;-76
2024/01/17 10:01:30;;;;;;;44.67;26.55;;;;;;;-2.33;75.14;96588.09;5072520;28;20049;-76
2024/01/17 10:03:58;;;;;;;53.25;26.15;;;;;;;-2.12;74.12;96591.22;5072451;28;20397;-75
2024/01/17 10:06:25;;;;;;;46.63;25.98;;;;;;;-2.22;74.53;96585.72;5072719;28;20021;-76
2024/01/17 10:08:50;;;;;;;50.17;26.27;;;;;;;-2.20;74.24;96579.25;5055759;28;20348;-76
2024/01/17 10:11:16;;;;;;;47.72;26.00;;;;;;;-2.15;74.53;96566.34;5092551;28;20028;-76
2024/01/17 10:13:41;;;;;;;53.90;26.55;;;;;;;-2.20;73.87;96568.81;5096038;28;20369;-76
2024/01/17 10:16:08;;;;;;;44.80;24.20;;;;;;;-2.25;75.03;96568.72;5080891;28;20111;-75
2024/01/17 10:18:34;;;;;;;42.15;25.17;;;;;;;-2.28;75.00;96556.09;5074366;28;20107;-75
2024/01/17 10:20:59;;;;;;;37.97;21.40;;;;;;;-2.14;74.14;96551.47;5072057;28;20174;-75
2024/01/17 10:23:26;;;;;;;42.08;22.92;;;;;;;-2.16;75.06;96546.44;5074146;28;20079;-75
2024/01/17 10:25:51;;;;;;;38.97;22.08;;;;;;;-2.03;74.91;96548.06;5075769;28;20032;-75
2024/01/17 10:28:17;;;;;;;32.83;21.17;;;;;;;-2.13;73.87;96532.13;5074353;28;20020;-75
2024/01/17 10:30:43;;;;;;;31.65;20.25;;;;;;;-2.00;74.30;96532.72;5072833;28;20028;-75
2024/01/17 10:33:08;;;;;;;31.90;21.10;;;;;;;-1.82;74.13;96530.03;5073873;28;20036;-75
2024/01/17 10:35:34;;;;;;;44.60;21.33;;;;;;;-1.81;74.00;96515.91;5067650;28;20036;-75
2024/01/17 10:38:00;;;;;;;42.05;23.17;;;;;;;-1.82;74.30;96521.38;5061261;28;20136;-75
2024/01/17 10:40:25;;;;;;;41.80;22.17;;;;;;;-2.00;74.24;96506.59;5072796;28;20027;-75
2024/01/17 10:43:05;;;;;;;41.03;19.00;;;;;;;-2.10;75.23;96502.97;5073518;28;20028;-75
2024/01/17 10:45:41;;;;;;;33.10;19.92;;;;;;;-1.96;74.81;96494.66;5073957;28;20029;-75
2024/01/17 10:48:07;;;;;;;37.72;19.83;;;;;;;-1.92;74.65;96485.34;5073781;28;20111;-75
2024/01/17 10:50:33;;;;;;;39.22;19.60;;;;;;;-1.89;74.65;96479.66;5071835;28;20120;-75
2024/01/17 10:53:08;;;;;;;41.55;20.13;;;;;;;-1.79;74.80;96479.88;5074990;28;20031;-75
2024/01/17 10:55:35;;;;;;;33.53;18.58;;;;;;;-1.66;74.35;96477.03;5071720;28;20101;-75
2024/01/17 10:58:07;;;;;;;31.08;16.75;;;;;;;-1.98;74.53;96472.38;5083209;28;20289;-75
2024/01/17 11:00:37;;;;;;;33.08;18.33;;;;;;;-1.77;74.74;96461.38;5092200;28;20069;-76
2024/01/17 11:03:08;;;;;;;32.83;16.85;;;;;;;-1.88;74.10;96462.16;5091788;28;20423;-75
2024/01/17 11:05:41;;;;;;;35.47;17.90;;;;;;;-1.66;74.09;96460.56;5093017;28;20465;-75
2024/01/17 11:08:06;;;;;;;29.77;17.27;;;;;;;-1.65;74.66;96447.25;5091239;28;20292;-75
2024/01/17 11:10:32;;;;;;;29.52;17.63;;;;;;;-1.59;74.00;96435.06;5091413;28;20028;-75
2024/01/17 11:12:58;;;;;;;29.10;16.38;;;;;;;-1.63;73.86;96439.97;5091928;28;20020;-75